CLMO2: North Canadian River

                                SHEF ID:       CLMO2     North Canadian River near Calume
STATION TYPE:
Regulating: Stage = 12.00, Flow = 1420

STAGE STAGE(2) RIV-FLOW WTR-TEMP DIS-OXY PH CONDUCT BAT-LOAD
ft ft cfs F mg/l su umho/cm volt
Ccp-Rev Ccp-Rev Ccp-Rev Ccp-Rev Ccp-Rev Ccp-Rev Ccp-Rev Ccp-Rev
(America/Chicago)
08/25 00:00 2.78 ---- 2 80.02 0.06 7.71 1361 12.47
08/25 01:00 2.79 ---- 2 79.57 0.05 7.69 1362 12.50
08/25 02:00 2.79 ---- 2 79.18 0.07 7.68 1357 12.46
08/25 03:00 2.80 ---- 2 78.33 0.06 7.70 1363 12.53
08/25 04:00 2.80 ---- 2 77.58 0.09 7.67 1343 12.47
08/25 05:00 2.81 ---- 2 77.54 0.06 7.66 1327 12.50
08/25 06:00 2.82 ---- 2 77.34 0.03 7.63 1315 12.37
08/25 07:00 2.82 ---- 2 76.84 0.01 7.64 1310 12.42
08/25 08:00 2.83 ---- 2 76.91 0.00 7.63 1305 12.40
08/25 09:00 2.83 ---- 2 79.05 0.94 7.61 1298 12.45
08/25 10:00 2.82 ---- 2 82.17 1.16 7.67 1326 12.37
08/25 11:00 2.82 ---- 2 86.72 6.14 8.01 1446 12.50
08/25 12:00 2.81 ---- 2 90.00 10.60 8.26 1360 12.47
08/25 13:00 2.80 ---- 2 93.20 15.30 8.46 1269 12.65
08/25 14:00 2.80 ---- 2 92.12 16.16 8.56 1308 12.89
08/25 15:00 2.80 ---- 2 89.73 13.73 8.52 1302 12.86
08/25 16:00 2.79 ---- 2 87.04 12.31 8.56 1296 13.07
08/25 17:00 2.79 ---- 2 86.09 12.83 8.64 1292 12.86
08/25 18:00 2.79 ---- 2 87.58 14.97 8.69 1287 12.86
08/25 19:00 2.79 ---- 2 84.33 9.36 8.56 1309 12.75
08/25 20:00 2.79 ---- 2 82.60 5.81 8.34 1331 12.57
08/25 21:00 2.79 ---- 2 81.81 3.01 8.02 1325 12.55
08/25 22:00 2.79 ---- 2 81.48 1.95 7.94 1315 12.53
08/25 23:00 2.79 ---- 2 81.01 0.90 7.83 1310 12.55
Data processed at Wed 26Aug2026 04:25 GMT

NOTICE: If you are parsing this page

Please convert to using our Data API. Starting early 2026 we will be migrating to: https://water.usace.army.mil with modern pages rendered in JavaScript. When this migration completes you will no longer be able to scrape this page! CWMSDataAPI (CDA)

Timeseries IDs (TSIDs)

TSIDs used from left to right in the data table
CALU.Stage.Inst.1Hour.0.Ccp-Rev
CALU.Stage-Alt.Inst.1Hour.0.Ccp-Rev
CALU.Flow.Inst.1Hour.0.Ccp-Rev
CALU.Temp-Water.Inst.1Hour.0.Ccp-Rev
CALU.Conc-DO.Inst.1Hour.0.Ccp-Rev
CALU.pH.Inst.1Hour.0.Ccp-Rev
CALU.Cond-Water.Inst.1Hour.0.Ccp-Rev
CALU.Volt-Battery Load.Inst.1Hour.0.Ccp-Rev

                            

All information presented herein is the property of the government of the United States of America and may be revised or deleted at any time without prior notice. Dissemination of this information without the expressed written consent of the Public Affairs Office, Tulsa District U.S. Army Corps of Engineers is strictly prohibited. These data are gathered electronically and, as presented, have NOT undergone any form of quality control. These data are NOT guaranteed to be valid or correct.